Time;durP1;ratioP1;P1;durP2;ratioP2;P2;SDS_P1;SDS_P2;PMS_P1;PMS_P2;Temp;Humidity;BMP_temperature;BMP_pressure;BME280_temperature;BME280_humidity;BME280_pressure;Samples;Min_cycle;Max_cycle;Signal;HPM_P1;HPM_P2
2023/04/20 00:01:41;;;;;;;25.83;4.22;;;;;;;7.61;81.85;99763.97;10378690;28;20029;-78
2023/04/20 00:06:42;;;;;;;34.25;4.97;;;;;;;7.52;82.44;99768.44;10378118;28;20144;-78
2023/04/20 00:11:43;;;;;;;26.95;4.20;;;;;;;7.44;82.73;99774.50;10377892;28;20046;-79
2023/04/20 00:16:44;;;;;;;29.38;4.43;;;;;;;7.23;82.63;99748.53;10377361;28;20046;-78
2023/04/20 00:21:46;;;;;;;36.05;4.03;;;;;;;7.09;82.55;99723.56;10377061;28;20069;-78
2023/04/20 00:26:47;;;;;;;22.55;4.85;;;;;;;7.23;83.38;99747.69;10377950;28;20061;-78
2023/04/20 00:31:48;;;;;;;20.30;3.53;;;;;;;6.54;83.33;99633.47;10377002;28;20046;-78
2023/04/20 00:36:49;;;;;;;22.88;4.90;;;;;;;6.42;83.39;99608.34;10377123;28;20430;-79
2023/04/20 00:41:50;;;;;;;23.40;4.10;;;;;;;7.31;84.07;99742.44;10376393;28;20643;-78
2023/04/20 00:46:53;;;;;;;20.90;3.45;;;;;;;7.59;83.49;99745.63;10376771;28;20136;-78
2023/04/20 00:51:57;;;;;;;24.23;7.13;;;;;;;7.43;83.17;99708.63;10376769;28;20117;-78
2023/04/20 00:56:58;;;;;;;26.15;4.90;;;;;;;7.69;83.19;99708.47;10377091;28;20042;-78
2023/04/20 01:01:59;;;;;;;22.02;4.65;;;;;;;6.71;83.26;99549.88;10375652;28;20045;-79
2023/04/20 01:07:00;;;;;;;19.67;4.03;;;;;;;7.51;83.00;99685.69;10376655;28;20402;-79
2023/04/20 01:12:01;;;;;;;19.70;4.10;;;;;;;7.51;83.59;99676.91;10375326;28;20042;-79
2023/04/20 01:17:03;;;;;;;21.00;3.90;;;;;;;7.70;83.50;99695.09;10375547;28;20038;-79
2023/04/20 01:22:04;;;;;;;26.17;4.10;;;;;;;7.70;83.39;99676.56;10358108;28;20038;-79
2023/04/20 01:27:05;;;;;;;18.73;4.45;;;;;;;7.35;83.48;99608.19;10374727;28;20058;-79
2023/04/20 01:32:06;;;;;;;30.83;5.15;;;;;;;7.61;83.35;99643.22;10374671;28;20042;-79
2023/04/20 01:37:07;;;;;;;27.65;4.70;;;;;;;7.27;83.15;99572.88;10357624;28;20100;-79
2023/04/20 01:42:08;;;;;;;22.15;4.88;;;;;;;7.97;83.52;99674.59;10374021;28;20092;-79
2023/04/20 01:47:09;;;;;;;29.42;5.40;;;;;;;7.78;83.77;99650.16;10374557;28;20049;-79
2023/04/20 01:52:10;;;;;;;22.50;4.22;;;;;;;7.80;83.65;99657.91;10374448;28;20048;-79
2023/04/20 01:57:10;;;;;;;23.20;4.78;;;;;;;7.74;84.10;99648.00;10374285;28;20061;-80
2023/04/20 02:02:11;;;;;;;23.70;4.35;;;;;;;7.23;83.77;99558.31;10373905;28;20100;-79
2023/04/20 02:07:12;;;;;;;34.20;5.47;;;;;;;7.80;84.17;99657.91;10373741;28;20038;-79
2023/04/20 02:12:12;;;;;;;20.63;4.60;;;;;;;7.69;84.28;99653.78;10364540;28;20049;-79
2023/04/20 02:17:13;;;;;;;27.15;4.82;;;;;;;7.63;84.83;99640.38;10373338;28;20065;-78
2023/04/20 02:22:14;;;;;;;23.35;4.43;;;;;;;7.59;85.05;99655.75;10373560;28;20129;-78
2023/04/20 02:27:15;;;;;;;25.55;5.15;;;;;;;7.13;84.60;99581.44;10373735;28;20058;-78
2023/04/20 02:32:15;;;;;;;26.65;5.20;;;;;;;7.59;84.96;99650.47;10370826;28;20068;-79
2023/04/20 02:37:16;;;;;;;28.90;5.63;;;;;;;7.70;85.03;99663.34;10354544;28;20497;-78
2023/04/20 02:42:17;;;;;;;23.48;4.75;;;;;;;7.52;84.89;99645.03;10370924;28;20041;-79
2023/04/20 02:47:18;;;;;;;27.42;5.30;;;;;;;7.81;84.69;99666.66;10353678;28;20079;-77
2023/04/20 02:52:18;;;;;;;23.30;5.30;;;;;;;7.91;84.45;99665.50;10369774;28;20049;-77
2023/04/20 02:57:19;;;;;;;27.15;5.05;;;;;;;8.30;84.62;99703.63;10352729;28;20556;-77
2023/04/20 03:02:20;;;;;;;32.50;5.00;;;;;;;8.36;83.71;99684.41;10372195;28;20038;-78
2023/04/20 03:07:21;;;;;;;29.23;5.25;;;;;;;8.79;83.22;99706.13;10371589;28;20042;-77
2023/04/20 03:12:22;;;;;;;31.92;4.85;;;;;;;9.14;82.20;99710.09;10371637;28;20080;-76
2023/04/20 03:17:23;;;;;;;25.55;4.80;;;;;;;9.32;81.01;99701.88;10371971;28;20042;-77
2023/04/20 03:22:23;;;;;;;22.42;4.55;;;;;;;9.59;80.23;99717.28;10371853;28;20045;-77
2023/04/20 03:27:24;;;;;;;34.38;4.90;;;;;;;9.63;78.77;99699.16;10371887;28;20398;-77
2023/04/20 03:32:26;;;;;;;27.92;4.97;;;;;;;9.74;78.31;99721.81;10371203;28;20084;-77
2023/04/20 03:37:27;;;;;;;30.08;5.30;;;;;;;9.49;77.79;99668.16;10371599;28;20616;-77
2023/04/20 03:42:29;;;;;;;31.33;4.50;;;;;;;10.13;77.16;99708.38;10370888;28;20048;-77
2023/04/20 03:47:30;;;;;;;26.63;5.10;;;;;;;9.63;76.44;99592.28;10371890;28;20129;-76
2023/04/20 03:52:30;;;;;;;17.95;4.10;;;;;;;10.45;75.79;99682.53;10368348;28;20122;-77
2023/04/20 03:57:32;;;;;;;29.05;4.70;;;;;;;10.60;75.03;99706.44;10371195;28;20092;-78
2023/04/20 04:02:33;;;;;;;32.80;5.28;;;;;;;10.74;74.82;99692.31;10368898;28;20096;-75
2023/04/20 04:07:34;;;;;;;32.42;5.22;;;;;;;10.73;74.50;99715.38;10376666;28;20528;-76
2023/04/20 04:12:35;;;;;;;23.67;3.80;;;;;;;10.28;73.89;99610.19;10377152;28;20133;-76
2023/04/20 04:17:36;;;;;;;29.75;4.15;;;;;;;10.79;73.68;99620.84;10377673;28;20103;-75
2023/04/20 04:22:37;;;;;;;19.45;4.30;;;;;;;11.48;73.36;99692.09;10377045;28;20037;-76
2023/04/20 04:27:38;;;;;;;23.55;4.45;;;;;;;11.79;71.78;99675.81;10378006;28;20062;-74
2023/04/20 04:32:40;;;;;;;18.73;4.10;;;;;;;11.70;71.23;99692.13;10377142;28;20171;-75
2023/04/20 04:37:41;;;;;;;35.40;4.60;;;;;;;12.13;70.86;99694.75;10377187;28;20049;-74
2023/04/20 04:42:44;;;;;;;23.45;4.05;;;;;;;12.42;69.69;99697.19;10377030;28;20049;-74
2023/04/20 04:47:45;;;;;;;24.73;4.20;;;;;;;13.02;68.38;99676.16;10374366;28;20041;-74
2023/04/20 04:52:45;;;;;;;23.90;5.55;;;;;;;13.84;65.58;99663.59;10375309;28;20041;-74
2023/04/20 04:57:46;;;;;;;27.88;4.78;;;;;;;13.41;65.00;99589.28;10375506;28;20049;-74
2023/04/20 05:02:47;;;;;;;24.38;5.53;;;;;;;13.60;64.96;99641.00;10374781;28;20506;-74
2023/04/20 05:07:48;;;;;;;29.88;5.40;;;;;;;13.58;64.13;99571.84;10375464;28;20580;-75
2023/04/20 05:12:48;;;;;;;35.42;7.07;;;;;;;13.50;63.55;99532.00;10376455;28;20088;-74
2023/04/20 05:17:49;;;;;;;58.35;20.58;;;;;;;13.87;63.09;99647.16;10374793;28;20066;-74
2023/04/20 05:22:50;;;;;;;22.85;5.78;;;;;;;13.77;63.99;99622.72;10375653;28;20049;-74
2023/04/20 05:27:51;;;;;;;24.38;4.63;;;;;;;14.14;62.56;99611.34;10375521;28;20107;-74
2023/04/20 05:32:52;;;;;;;25.80;6.10;;;;;;;14.75;61.99;99649.47;10374947;28;20033;-74
2023/04/20 05:37:53;;;;;;;38.60;8.65;;;;;;;14.12;61.19;99568.03;10375064;28;20045;-74
2023/04/20 05:42:53;;;;;;;27.02;5.22;;;;;;;14.70;60.44;99633.22;10374784;28;20038;-75
2023/04/20 05:47:55;;;;;;;44.70;8.10;;;;;;;14.39;60.22;99543.91;10374457;28;20045;-75
2023/04/20 05:52:56;;;;;;;102.30;26.77;;;;;;;14.92;59.76;99594.44;10375017;28;20065;-75
2023/04/20 05:57:57;;;;;;;37.00;8.50;;;;;;;15.20;59.78;99606.63;10373857;28;20081;-74
2023/04/20 06:02:58;;;;;;;35.67;6.82;;;;;;;15.38;59.03;99558.53;10373943;28;20045;-75
2023/04/20 06:07:58;;;;;;;38.10;9.02;;;;;;;15.66;58.50;99603.59;10373273;28;20069;-75
2023/04/20 06:12:59;;;;;;;46.67;12.18;;;;;;;15.33;58.53;99536.94;10373020;28;20038;-74
2023/04/20 06:18:00;;;;;;;54.90;15.35;;;;;;;15.89;58.32;99586.94;10373787;28;20050;-75
2023/04/20 06:23:01;;;;;;;86.68;25.83;;;;;;;15.98;58.03;99580.25;10372646;28;20133;-76
2023/04/20 06:28:03;;;;;;;34.65;8.52;;;;;;;16.10;57.65;99587.56;10373233;28;20053;-74
2023/04/20 06:33:03;;;;;;;32.60;5.43;;;;;;;15.74;57.58;99514.16;10372647;28;20082;-76
2023/04/20 06:38:04;;;;;;;24.50;4.95;;;;;;;16.55;57.02;99557.75;10372446;28;20537;-77
2023/04/20 06:43:05;;;;;;;31.27;7.05;;;;;;;16.74;56.65;99532.50;10354635;28;20489;-74
2023/04/20 06:48:06;;;;;;;29.02;5.38;;;;;;;16.42;56.17;99452.34;10371970;28;20048;-75
2023/04/20 06:53:06;;;;;;;75.70;20.77;;;;;;;16.89;56.13;99527.56;10372580;28;20088;-73
2023/04/20 06:58:07;;;;;;;27.17;5.32;;;;;;;16.98;56.23;99520.00;10371979;28;20136;-74
2023/04/20 07:03:08;;;;;;;28.92;5.22;;;;;;;17.24;56.15;99502.69;10373380;28;20104;-75
2023/04/20 07:08:09;;;;;;;36.63;7.78;;;;;;;17.52;56.23;99482.38;10372157;28;20137;-74
2023/04/20 07:13:10;;;;;;;25.17;5.10;;;;;;;17.39;56.11;99498.72;10372055;28;20144;-74
2023/04/20 07:18:11;;;;;;;31.38;5.20;;;;;;;17.44;56.63;99482.72;10372447;28;20469;-75
2023/04/20 07:23:12;;;;;;;25.40;5.82;;;;;;;17.46;56.64;99507.47;10371501;28;20042;-75
2023/04/20 07:28:13;;;;;;;26.33;6.30;;;;;;;17.11;56.98;99457.25;10372108;28;20081;-74
2023/04/20 07:33:14;;;;;;;32.38;7.05;;;;;;;17.38;57.35;99491.69;10371793;28;20034;-74
2023/04/20 07:38:15;;;;;;;27.83;6.32;;;;;;;16.86;57.78;99427.97;10372515;28;20050;-74
2023/04/20 07:43:15;;;;;;;21.80;6.15;;;;;;;17.11;58.38;99457.25;10380260;28;20041;-75
2023/04/20 07:48:16;;;;;;;26.85;6.65;;;;;;;17.68;58.03;99476.28;10378992;28;20095;-74
2023/04/20 07:53:17;;;;;;;27.13;7.60;;;;;;;17.79;57.29;99480.03;10379089;28;20038;-75
2023/04/20 07:58:18;;;;;;;26.77;6.88;;;;;;;17.74;58.18;99485.28;10378730;28;20057;-74
2023/04/20 08:03:19;;;;;;;34.83;9.20;;;;;;;18.40;57.12;99462.44;10379201;28;20084;-73
2023/04/20 08:08:20;;;;;;;20.25;7.05;;;;;;;18.87;55.97;99448.75;10378472;28;20052;-74
2023/04/20 08:13:20;;;;;;;26.50;7.60;;;;;;;19.01;54.79;99376.56;10378387;28;20042;-74
2023/04/20 08:18:21;;;;;;;25.20;8.73;;;;;;;19.88;54.08;99428.13;10378005;28;20037;-74
2023/04/20 08:23:26;;;;;;;31.00;8.48;;;;;;;20.17;53.62;99420.66;10378302;28;20061;-74
2023/04/20 08:28:27;;;;;;;20.85;7.75;;;;;;;19.95;53.51;99424.19;10359864;28;20406;-75
2023/04/20 08:33:28;;;;;;;27.75;8.20;;;;;;;19.92;53.24;99402.28;10376938;28;20042;-75
2023/04/20 08:38:29;;;;;;;28.77;9.07;;;;;;;20.01;53.63;99409.69;10377224;28;20048;-74
2023/04/20 08:43:31;;;;;;;32.72;9.20;;;;;;;20.50;52.71;99406.94;10377193;28;20049;-74
2023/04/20 08:48:37;;;;;;;26.52;8.38;;;;;;;20.70;51.25;99409.03;10376611;28;20068;-75
2023/04/20 08:53:38;;;;;;;23.67;7.38;;;;;;;19.95;51.37;99327.16;10376030;28;20037;-76
2023/04/20 08:58:41;;;;;;;26.73;9.77;;;;;;;21.07;51.37;99399.31;10375827;28;20476;-72
2023/04/20 09:03:41;;;;;;;28.85;9.80;;;;;;;21.02;50.44;99372.28;10376456;28;20041;-76
2023/04/20 09:08:44;;;;;;;29.08;8.35;;;;;;;21.28;49.94;99368.66;10375383;28;20061;-76
2023/04/20 09:14:04;;;;;;;24.77;8.90;;;;;;;21.41;48.76;99343.09;10376873;28;20069;-75
2023/04/20 09:19:05;;;;;;;22.15;8.07;;;;;;;21.39;48.15;99302.84;10375537;28;20042;-74
2023/04/20 09:24:06;;;;;;;26.77;8.52;;;;;;;21.50;47.94;99359.59;10374707;28;20058;-74
2023/04/20 09:29:22;;;;;;;24.95;9.27;;;;;;;21.88;47.51;99280.78;10374812;28;20042;-74
2023/04/20 09:34:23;;;;;;;18.08;7.55;;;;;;;22.49;46.39;99330.63;10375182;28;20506;-76
2023/04/20 09:39:25;;;;;;;26.38;8.10;;;;;;;21.97;45.85;99267.56;10374174;28;20046;-74
2023/04/20 09:44:26;;;;;;;26.45;8.90;;;;;;;22.39;45.39;99320.63;10374222;28;20502;-75
2023/04/20 09:49:27;;;;;;;23.85;9.90;;;;;;;22.67;45.25;99313.81;10374281;28;20041;-74
2023/04/20 09:54:29;;;;;;;23.83;7.90;;;;;;;22.68;44.54;99290.28;10374268;28;20040;-73
2023/04/20 09:59:32;;;;;;;28.95;8.63;;;;;;;22.97;44.13;99285.09;10331774;28;20049;-75
2023/04/20 10:04:33;;;;;;;25.15;7.78;;;;;;;22.97;43.30;99299.47;10333090;28;20042;-74
2023/04/20 10:09:36;;;;;;;21.85;7.18;;;;;;;22.79;43.66;99243.13;10332871;28;20082;-74
2023/04/20 10:14:37;;;;;;;30.80;7.45;;;;;;;22.90;42.95;99260.97;10333104;28;20049;-74
2023/04/20 10:19:43;;;;;;;24.90;7.50;;;;;;;22.74;42.30;99230.44;10333390;28;20529;-73
2023/04/20 10:24:43;;;;;;;30.60;6.63;;;;;;;23.18;41.81;99262.28;10332220;28;20046;-75
2023/04/20 10:29:44;;;;;;;36.15;6.65;;;;;;;23.53;41.28;99254.25;10332490;28;20042;-76
2023/04/20 10:34:45;;;;;;;27.95;6.63;;;;;;;22.95;40.60;99195.22;10332937;28;20046;-74
2023/04/20 10:39:47;;;;;;;29.35;5.97;;;;;;;23.39;40.34;99240.47;10332186;28;20049;-75
2023/04/20 10:44:51;;;;;;;27.88;6.97;;;;;;;23.64;40.11;99234.13;10331667;28;20508;-74
2023/04/20 10:49:52;;;;;;;30.70;6.60;;;;;;;23.82;40.07;99252.47;10332133;28;20454;-77
2023/04/20 10:54:52;;;;;;;26.52;6.55;;;;;;;23.69;40.16;99251.19;10331744;28;20034;-74
2023/04/20 10:59:53;;;;;;;27.27;6.32;;;;;;;23.86;40.55;99245.38;10331635;28;20093;-74
2023/04/20 11:04:59;;;;;;;18.77;5.85;;;;;;;24.18;40.40;99246.75;10332197;28;20398;-74
2023/04/20 11:10:00;;;;;;;19.92;6.03;;;;;;;24.09;40.09;99243.84;10331753;28;20605;-74
2023/04/20 11:15:01;;;;;;;17.52;6.00;;;;;;;23.97;40.17;99235.28;10334635;28;20042;-74
2023/04/20 11:20:20;;;;;;;18.58;5.97;;;;;;;24.04;40.02;99178.78;10339367;28;20042;-72
2023/04/20 11:25:21;;;;;;;21.33;7.40;;;;;;;24.17;39.77;99195.47;10339563;28;20058;-75
2023/04/20 11:30:22;;;;;;;20.50;5.72;;;;;;;24.20;40.41;99205.75;10338734;28;20498;-74
2023/04/20 11:35:23;;;;;;;22.00;7.80;;;;;;;23.75;40.50;99142.69;10339151;28;20043;-74
2023/04/20 11:40:23;;;;;;;16.48;6.28;;;;;;;24.22;40.86;99209.81;10338405;28;20108;-75
2023/04/20 11:45:24;;;;;;;23.98;5.97;;;;;;;23.88;40.34;99134.72;10339171;28;20132;-74
2023/04/20 11:50:25;;;;;;;21.38;6.38;;;;;;;24.25;40.78;99186.72;10337987;28;20049;-74
2023/04/20 11:55:26;;;;;;;30.20;6.38;;;;;;;24.40;41.02;99172.19;10338199;28;20065;-72
2023/04/20 12:00:27;;;;;;;13.68;5.60;;;;;;;24.33;40.74;99156.25;10338220;28;20045;-73
2023/04/20 12:05:28;;;;;;;22.30;6.35;;;;;;;24.26;41.25;99169.34;10338174;28;20053;-72
2023/04/20 12:10:29;;;;;;;21.77;6.07;;;;;;;24.22;41.12;99146.59;10337980;28;20049;-73
2023/04/20 12:15:29;;;;;;;19.73;6.00;;;;;;;24.17;41.77;99125.75;10337634;28;20508;-75
2023/04/20 12:20:30;;;;;;;22.77;5.63;;;;;;;23.98;41.25;99090.41;10337550;28;20074;-74
2023/04/20 12:25:31;;;;;;;23.88;6.68;;;;;;;24.12;41.57;99140.19;10336573;28;20061;-75
2023/04/20 12:30:36;;;;;;;19.88;5.32;;;;;;;24.08;42.25;99150.00;10337008;28;20051;-73
2023/04/20 12:35:37;;;;;;;20.85;5.97;;;;;;;24.01;42.00;99078.16;10336200;28;20043;-75
2023/04/20 12:40:37;;;;;;;25.33;7.20;;;;;;;24.28;42.13;99143.53;10336855;28;20038;-72
2023/04/20 12:45:38;;;;;;;16.73;6.35;;;;;;;24.24;41.73;99118.09;10336475;28;20129;-71
2023/04/20 12:50:39;;;;;;;21.80;7.22;;;;;;;24.25;41.70;99121.59;10336971;28;20042;-72
2023/04/20 12:55:40;;;;;;;18.13;5.90;;;;;;;24.11;41.86;99122.28;10336063;28;20043;-72
2023/04/20 13:00:42;;;;;;;24.02;8.88;;;;;;;23.72;42.20;99023.94;10335988;28;20133;-71
2023/04/20 13:05:43;;;;;;;19.45;5.90;;;;;;;24.34;42.04;99087.28;10360200;28;20081;-72
2023/04/20 13:10:44;;;;;;;20.80;6.35;;;;;;;24.59;41.85;99116.91;10375780;28;20068;-72
2023/04/20 13:15:45;;;;;;;17.95;6.28;;;;;;;24.46;42.26;99135.78;10376565;28;20505;-73
2023/04/20 13:20:46;;;;;;;21.80;7.13;;;;;;;24.11;42.73;99126.88;10375208;28;20038;-71
2023/04/20 13:25:47;;;;;;;26.02;6.38;;;;;;;23.20;43.41;99032.50;10373347;28;20531;-71
2023/04/20 13:30:47;;;;;;;26.27;7.63;;;;;;;23.21;43.91;99053.13;10338505;28;20056;-72
2023/04/20 13:35:48;;;;;;;16.52;5.53;;;;;;;23.81;43.68;99128.81;10371800;28;20057;-72
2023/04/20 13:40:49;;;;;;;24.58;6.15;;;;;;;23.99;43.55;99123.75;10373940;28;20065;-71
2023/04/20 13:45:50;;;;;;;25.10;5.47;;;;;;;23.82;43.60;99091.66;10371346;28;20054;-72
2023/04/20 13:50:52;;;;;;;13.32;5.00;;;;;;;23.73;44.11;99096.88;10373781;28;20520;-72
2023/04/20 13:55:53;;;;;;;22.33;5.10;;;;;;;23.47;44.34;99093.56;10374071;28;20037;-72
2023/04/20 14:00:54;;;;;;;23.50;5.95;;;;;;;23.29;45.21;99094.22;10374125;28;20038;-71
2023/04/20 14:05:55;;;;;;;26.38;5.63;;;;;;;22.69;45.93;99035.53;10373999;28;20383;-71
2023/04/20 14:10:56;;;;;;;19.50;5.43;;;;;;;22.97;46.21;99096.34;10372523;28;20490;-70
2023/04/20 14:15:57;;;;;;;21.92;5.53;;;;;;;22.64;46.29;99105.94;10341677;28;20050;-71
2023/04/20 14:20:57;;;;;;;23.52;5.95;;;;;;;22.00;47.24;99033.66;10333115;28;20058;-70
2023/04/20 14:25:59;;;;;;;42.50;7.70;;;;;;;21.83;48.04;99045.56;10344958;28;20127;-71
2023/04/20 14:31:01;;;;;;;20.73;6.35;;;;;;;21.42;49.22;99067.25;10355491;28;20053;-72
2023/04/20 14:36:02;;;;;;;25.08;8.93;;;;;;;21.14;49.65;99059.63;10372481;28;20069;-73
2023/04/20 14:41:03;;;;;;;26.45;10.27;;;;;;;21.17;50.01;99086.91;10372462;28;20136;-72
2023/04/20 14:46:07;;;;;;;25.48;7.55;;;;;;;20.89;51.00;99055.03;10372086;28;20057;-72
2023/04/20 14:51:08;;;;;;;30.33;11.23;;;;;;;20.91;51.09;99113.06;10372162;28;20480;-72
2023/04/20 14:56:10;;;;;;;23.65;9.50;;;;;;;20.72;51.75;99130.81;10372704;28;20160;-72
2023/04/20 15:01:10;;;;;;;24.90;9.05;;;;;;;20.43;52.31;99104.22;10372293;28;20046;-72
2023/04/20 15:06:11;;;;;;;25.70;8.10;;;;;;;20.37;52.99;99118.78;10371749;28;20053;-72
2023/04/20 15:11:12;;;;;;;26.50;9.02;;;;;;;19.74;53.61;99045.06;10371600;28;20042;-71
2023/04/20 15:16:13;;;;;;;36.78;8.63;;;;;;;19.33;53.60;98982.81;10372206;28;20092;-71
2023/04/20 15:21:13;;;;;;;25.73;8.35;;;;;;;19.08;54.18;98972.66;10372345;28;20490;-72
2023/04/20 15:26:14;;;;;;;24.65;7.28;;;;;;;18.63;54.51;98933.50;10370947;28;20149;-71
2023/04/20 15:31:17;;;;;;;35.75;8.68;;;;;;;19.48;54.72;99090.66;10370674;28;20041;-73
2023/04/20 15:36:19;;;;;;;26.98;8.55;;;;;;;19.26;55.14;99089.91;10359119;28;20618;-75
2023/04/20 15:41:20;;;;;;;24.65;11.10;;;;;;;18.93;55.63;99062.97;10330584;28;20121;-77
2023/04/20 15:46:23;;;;;;;21.92;7.25;;;;;;;18.89;56.28;99090.63;10331884;28;20129;-77
2023/04/20 15:51:23;;;;;;;28.50;8.05;;;;;;;18.71;56.80;99087.16;10330332;28;20528;-76
2023/04/20 15:56:24;;;;;;;30.38;10.95;;;;;;;18.70;57.33;99106.28;10330879;28;20050;-77
2023/04/20 16:01:25;;;;;;;27.88;9.80;;;;;;;18.42;57.85;99104.56;10333815;28;20540;-77
2023/04/20 16:06:26;;;;;;;45.33;11.82;;;;;;;18.35;58.38;99120.88;10337947;28;20184;-76
2023/04/20 16:11:27;;;;;;;33.00;11.77;;;;;;;18.19;58.57;99102.94;10340980;28;20037;-74
2023/04/20 16:16:27;;;;;;;22.20;7.97;;;;;;;18.12;59.32;99121.09;10374773;28;20046;-73
2023/04/20 16:21:28;;;;;;;31.15;11.38;;;;;;;18.05;59.68;99141.97;10376717;28;20049;-74
2023/04/20 16:26:29;;;;;;;36.35;7.28;;;;;;;17.73;59.32;99156.75;10377244;28;20066;-78
2023/04/20 16:31:30;;;;;;;36.60;8.07;;;;;;;17.32;58.91;99158.75;10376897;28;20136;-75
2023/04/20 16:36:31;;;;;;;30.08;8.75;;;;;;;16.96;58.27;99140.34;10375614;28;20042;-75
2023/04/20 16:41:32;;;;;;;33.55;7.80;;;;;;;16.88;58.07;99171.84;10375714;28;20556;-78
2023/04/20 16:46:33;;;;;;;28.75;7.47;;;;;;;16.40;58.10;99137.31;10376289;28;20038;-75
2023/04/20 16:51:34;;;;;;;24.65;6.90;;;;;;;16.43;58.02;99169.00;10374824;28;20454;-77
2023/04/20 16:56:35;;;;;;;26.45;7.38;;;;;;;16.25;57.37;99169.16;10376753;28;20540;-77
2023/04/20 17:01:36;;;;;;;32.58;7.40;;;;;;;15.77;56.87;99112.06;10375361;28;20034;-76
2023/04/20 17:06:36;;;;;;;26.65;5.70;;;;;;;15.88;56.17;99150.59;10375634;28;20441;-76
2023/04/20 17:11:38;;;;;;;26.58;5.75;;;;;;;15.80;55.36;99169.69;10375914;28;20034;-78
2023/04/20 17:16:39;;;;;;;38.95;5.75;;;;;;;15.72;54.48;99176.19;11342059;23;20412;-77
2023/04/20 17:21:40;;;;;;;31.58;5.90;;;;;;;15.43;54.02;99145.72;10445073;28;20079;-77
2023/04/20 17:26:41;;;;;;;33.33;5.25;;;;;;;15.55;53.19;99183.22;10421762;28;20163;-74
2023/04/20 17:31:42;;;;;;;24.52;5.65;;;;;;;15.08;52.88;99143.75;10413880;28;20041;-76
2023/04/20 17:36:43;;;;;;;26.63;4.85;;;;;;;15.16;51.80;99172.03;10315801;28;20100;-76
2023/04/20 17:41:43;;;;;;;24.30;4.53;;;;;;;15.24;50.13;99193.13;10319704;28;20046;-76
2023/04/20 17:46:44;;;;;;;32.92;4.93;;;;;;;15.19;49.77;99204.50;10320828;28;20384;-74
2023/04/20 17:56:56;;;;;;;27.50;6.03;;;;;;;14.91;49.60;99164.13;10338535;23;20152;-74
2023/04/20 18:01:58;;;;;;;40.75;4.18;;;;;;;14.87;49.58;99171.78;10284275;28;20051;-77
2023/04/20 18:06:59;;;;;;;29.77;4.45;;;;;;;14.35;49.58;99101.84;10312070;28;20054;-76
2023/04/20 18:12:00;;;;;;;16.38;3.53;;;;;;;14.70;49.69;99176.91;10306872;28;20609;-75
2023/04/20 18:17:01;;;;;;;22.55;4.15;;;;;;;14.70;49.60;99192.16;10292427;28;20137;-75
2023/04/20 18:22:02;;;;;;;27.95;3.92;;;;;;;14.71;49.92;99209.81;10308230;28;20050;-76
2023/04/20 18:27:05;;;;;;;22.55;5.22;;;;;;;14.34;50.37;99150.97;10313461;28;20059;-76
2023/04/20 18:32:06;;;;;;;26.88;4.28;;;;;;;14.61;50.47;99200.44;10292050;28;20042;-75
2023/04/20 18:37:08;;;;;;;27.50;3.85;;;;;;;14.29;50.67;99148.97;10305726;28;20046;-76
2023/04/20 18:42:09;;;;;;;23.70;4.15;;;;;;;14.33;50.99;99144.81;10331262;28;20121;-77
2023/04/20 18:47:10;;;;;;;31.10;4.05;;;;;;;14.36;51.69;99164.94;10332165;28;20050;-77
2023/04/20 18:52:12;;;;;;;24.50;3.88;;;;;;;13.80;51.90;99094.59;10330454;28;20581;-76
2023/04/20 18:57:14;;;;;;;24.02;4.22;;;;;;;13.73;52.10;99085.84;10319948;28;20410;-76
2023/04/20 19:02:16;;;;;;;26.77;3.70;;;;;;;14.26;52.26;99164.63;10303453;28;20130;-78
2023/04/20 19:07:17;;;;;;;25.80;5.20;;;;;;;13.74;52.44;99086.66;10293215;28;20035;-76
2023/04/20 19:12:18;;;;;;;23.48;4.00;;;;;;;14.28;52.72;99179.38;10302217;28;20074;-77
2023/04/20 19:17:19;;;;;;;21.42;3.85;;;;;;;14.16;52.91;99159.78;10291263;28;20545;-76
2023/04/20 19:22:19;;;;;;;24.20;3.67;;;;;;;14.23;53.02;99186.44;10295522;28;20054;-75
2023/04/20 19:27:20;;;;;;;27.25;4.53;;;;;;;14.11;54.08;99163.09;10313943;28;20521;-74
2023/04/20 19:32:21;;;;;;;28.25;4.03;;;;;;;14.18;55.02;99168.41;10320940;28;20481;-75
2023/04/20 19:37:22;;;;;;;24.25;3.67;;;;;;;14.22;55.74;99195.47;10296124;28;20050;-77
2023/04/20 19:42:23;;;;;;;24.40;4.10;;;;;;;14.01;56.28;99157.47;10281463;28;20553;-75
2023/04/20 19:47:24;;;;;;;19.80;3.30;;;;;;;13.95;56.81;99163.69;10298164;28;20122;-75
2023/04/20 19:52:24;;;;;;;24.30;4.95;;;;;;;13.60;56.67;99120.63;10280996;28;20046;-75
2023/04/20 19:57:25;;;;;;;27.80;4.05;;;;;;;14.02;57.04;99201.81;10298555;28;20143;-75
2023/04/20 20:02:26;;;;;;;19.23;3.60;;;;;;;13.83;58.16;99152.06;10297674;28;20047;-76
2023/04/20 20:07:27;;;;;;;27.58;4.68;;;;;;;12.95;60.91;99067.50;10313521;28;20137;-76
2023/04/20 20:12:28;;;;;;;24.42;4.70;;;;;;;12.67;62.79;99091.84;10288363;28;20129;-75
2023/04/20 20:17:29;;;;;;;29.63;5.43;;;;;;;13.13;64.42;99176.09;10297679;28;20038;-75
2023/04/20 20:22:29;;;;;;;23.25;4.07;;;;;;;12.54;66.56;99090.88;10297759;28;20122;-75
2023/04/20 20:27:30;;;;;;;18.75;3.72;;;;;;;12.85;68.33;99179.09;10297004;28;20450;-75
2023/04/20 20:32:31;;;;;;;23.67;5.63;;;;;;;12.39;69.86;99114.31;10296479;28;20038;-74
2023/04/20 20:37:33;;;;;;;27.75;5.40;;;;;;;12.65;70.56;99161.31;10296013;28;20054;-74
2023/04/20 20:42:37;;;;;;;45.83;8.75;;;;;;;12.79;72.67;99186.91;10296413;28;20518;-73
2023/04/20 20:47:42;;;;;;;29.20;6.87;;;;;;;12.78;73.40;99173.81;10295405;28;20507;-73
2023/04/20 20:52:43;;;;;;;28.88;5.88;;;;;;;12.21;73.21;99051.06;10278070;28;20369;-74
2023/04/20 20:57:45;;;;;;;31.63;6.68;;;;;;;12.86;73.08;99132.75;10306052;28;20050;-74
2023/04/20 21:02:46;;;;;;;21.50;6.05;;;;;;;12.57;72.88;99100.31;10295338;28;20046;-74
2023/04/20 21:07:46;;;;;;;38.25;6.97;;;;;;;12.53;74.16;99158.53;10278667;28;20035;-74
2023/04/20 21:12:47;;;;;;;29.98;5.72;;;;;;;12.33;74.60;99107.16;10295407;28;20038;-74
2023/04/20 21:17:48;;;;;;;21.77;5.57;;;;;;;12.54;74.77;99135.38;10295577;28;20495;-74
2023/04/20 21:22:49;;;;;;;27.95;5.20;;;;;;;12.57;75.61;99166.91;10294585;28;20515;-74
2023/04/20 21:27:50;;;;;;;25.05;4.68;;;;;;;12.48;76.46;99174.31;10295452;28;20050;-73
2023/04/20 21:32:50;;;;;;;25.42;6.50;;;;;;;12.24;76.55;99145.69;10294067;28;20054;-76
2023/04/20 21:37:51;;;;;;;34.83;8.10;;;;;;;12.23;77.03;99155.50;10293700;28;20047;-75
2023/04/20 21:42:52;;;;;;;27.52;5.15;;;;;;;12.50;77.86;99190.06;10294601;28;20046;-75
2023/04/20 21:47:54;;;;;;;24.75;5.40;;;;;;;12.48;78.36;99178.81;10294581;28;20062;-75
2023/04/20 21:52:55;;;;;;;32.38;4.53;;;;;;;12.42;78.01;99153.03;10293138;28;20106;-75
2023/04/20 21:57:55;;;;;;;28.15;4.75;;;;;;;12.56;77.96;99152.78;10275559;28;20053;-75
2023/04/20 22:02:56;;;;;;;30.70;5.47;;;;;;;12.51;77.40;99146.44;10292991;28;20074;-75
2023/04/20 22:07:57;;;;;;;31.52;5.55;;;;;;;12.46;77.39;99127.59;10293003;28;20097;-75
2023/04/20 22:12:58;;;;;;;36.20;6.50;;;;;;;12.48;77.40;99136.19;10293370;28;20049;-76
2023/04/20 22:17:59;;;;;;;32.47;6.28;;;;;;;12.39;77.99;99134.81;10293489;28;20483;-75
2023/04/20 22:22:59;;;;;;;40.88;6.82;;;;;;;12.38;78.09;99146.47;10296634;28;20054;-75
2023/04/20 22:28:00;;;;;;;41.28;6.47;;;;;;;12.26;78.12;99130.31;10299253;28;20528;-75
2023/04/20 22:33:02;;;;;;;41.50;6.72;;;;;;;11.77;78.08;99084.50;10292383;28;20047;-74
2023/04/20 22:38:03;;;;;;;40.47;6.22;;;;;;;11.67;76.65;99073.47;10291656;28;20509;-75
2023/04/20 22:43:04;;;;;;;31.83;5.60;;;;;;;11.83;76.51;99112.94;10292167;28;20094;-75
2023/04/20 22:48:05;;;;;;;25.63;5.20;;;;;;;12.05;76.00;99120.72;10291622;28;20406;-75
2023/04/20 22:53:06;;;;;;;30.15;5.35;;;;;;;11.98;75.56;99127.91;10292040;28;20055;-75
2023/04/20 22:58:07;;;;;;;33.17;5.25;;;;;;;11.02;74.99;98977.56;10291617;28;20487;-74
2023/04/20 23:03:07;;;;;;;32.25;4.53;;;;;;;11.75;74.94;99078.56;10291262;28;20462;-75
2023/04/20 23:08:09;;;;;;;49.80;8.50;;;;;;;11.60;75.33;99038.88;10291844;28;20129;-75